sensor_id;sensor_type;location;lat;lon;timestamp;P1;durP1;ratioP1;P2;durP2;ratioP2
6442;SDS011;3254;47.372;8.512;2023-03-01T00:01:25;30.65;;;18.50;;
6442;SDS011;3254;47.372;8.512;2023-03-01T00:03:53;26.80;;;17.63;;
6442;SDS011;3254;47.372;8.512;2023-03-01T00:06:19;29.98;;;18.23;;
6442;SDS011;3254;47.372;8.512;2023-03-01T00:08:46;28.27;;;18.83;;
6442;SDS011;3254;47.372;8.512;2023-03-01T00:11:12;26.33;;;17.20;;
6442;SDS011;3254;47.372;8.512;2023-03-01T00:13:38;28.83;;;18.48;;
6442;SDS011;3254;47.372;8.512;2023-03-01T00:16:05;28.35;;;19.15;;
6442;SDS011;3254;47.372;8.512;2023-03-01T00:18:34;31.42;;;19.98;;
6442;SDS011;3254;47.372;8.512;2023-03-01T00:20:59;28.77;;;19.00;;
6442;SDS011;3254;47.372;8.512;2023-03-01T00:23:25;28.17;;;19.63;;
6442;SDS011;3254;47.372;8.512;2023-03-01T00:25:51;29.85;;;18.77;;
6442;SDS011;3254;47.372;8.512;2023-03-01T00:28:17;32.67;;;19.50;;
6442;SDS011;3254;47.372;8.512;2023-03-01T00:30:43;29.00;;;19.20;;
6442;SDS011;3254;47.372;8.512;2023-03-01T00:33:09;31.93;;;19.70;;
6442;SDS011;3254;47.372;8.512;2023-03-01T00:35:35;32.90;;;19.63;;
6442;SDS011;3254;47.372;8.512;2023-03-01T00:38:01;32.77;;;20.27;;
6442;SDS011;3254;47.372;8.512;2023-03-01T00:40:28;29.98;;;20.38;;
6442;SDS011;3254;47.372;8.512;2023-03-01T00:42:54;34.25;;;20.13;;
6442;SDS011;3254;47.372;8.512;2023-03-01T00:45:20;30.70;;;19.53;;
6442;SDS011;3254;47.372;8.512;2023-03-01T00:47:45;30.60;;;20.20;;
6442;SDS011;3254;47.372;8.512;2023-03-01T00:50:12;31.30;;;18.88;;
6442;SDS011;3254;47.372;8.512;2023-03-01T00:52:37;32.97;;;20.47;;
6442;SDS011;3254;47.372;8.512;2023-03-01T00:55:03;29.53;;;20.33;;
6442;SDS011;3254;47.372;8.512;2023-03-01T00:57:30;31.83;;;20.27;;
6442;SDS011;3254;47.372;8.512;2023-03-01T00:59:55;31.27;;;20.40;;
6442;SDS011;3254;47.372;8.512;2023-03-01T01:02:21;29.87;;;18.57;;
6442;SDS011;3254;47.372;8.512;2023-03-01T01:04:47;32.53;;;19.95;;
6442;SDS011;3254;47.372;8.512;2023-03-01T01:07:13;32.63;;;20.20;;
6442;SDS011;3254;47.372;8.512;2023-03-01T01:09:39;33.90;;;21.00;;
6442;SDS011;3254;47.372;8.512;2023-03-01T01:12:05;32.63;;;20.17;;
6442;SDS011;3254;47.372;8.512;2023-03-01T01:14:31;34.40;;;21.40;;
6442;SDS011;3254;47.372;8.512;2023-03-01T01:16:56;31.73;;;20.37;;
6442;SDS011;3254;47.372;8.512;2023-03-01T01:19:23;33.13;;;20.60;;
6442;SDS011;3254;47.372;8.512;2023-03-01T01:21:49;34.92;;;20.55;;
6442;SDS011;3254;47.372;8.512;2023-03-01T01:24:15;29.38;;;18.92;;
6442;SDS011;3254;47.372;8.512;2023-03-01T01:26:41;31.15;;;19.20;;
6442;SDS011;3254;47.372;8.512;2023-03-01T01:29:07;27.30;;;18.23;;
6442;SDS011;3254;47.372;8.512;2023-03-01T01:31:34;28.38;;;18.80;;
6442;SDS011;3254;47.372;8.512;2023-03-01T01:34:01;35.80;;;19.98;;
6442;SDS011;3254;47.372;8.512;2023-03-01T01:36:29;32.22;;;20.02;;
6442;SDS011;3254;47.372;8.512;2023-03-01T01:38:55;34.40;;;20.40;;
6442;SDS011;3254;47.372;8.512;2023-03-01T01:41:21;30.85;;;19.90;;
6442;SDS011;3254;47.372;8.512;2023-03-01T01:43:49;31.40;;;19.05;;
6442;SDS011;3254;47.372;8.512;2023-03-01T01:46:37;38.83;;;20.52;;
6442;SDS011;3254;47.372;8.512;2023-03-01T01:52:16;30.42;;;19.50;;
6442;SDS011;3254;47.372;8.512;2023-03-01T01:55:16;32.10;;;19.65;;
6442;SDS011;3254;47.372;8.512;2023-03-01T01:57:47;28.00;;;18.73;;
6442;SDS011;3254;47.372;8.512;2023-03-01T02:00:18;31.92;;;20.48;;
6442;SDS011;3254;47.372;8.512;2023-03-01T02:02:46;32.97;;;19.70;;
6442;SDS011;3254;47.372;8.512;2023-03-01T02:07:57;31.50;;;19.45;;
6442;SDS011;3254;47.372;8.512;2023-03-01T02:10:24;31.75;;;20.63;;
6442;SDS011;3254;47.372;8.512;2023-03-01T02:12:50;28.98;;;19.75;;
6442;SDS011;3254;47.372;8.512;2023-03-01T02:15:17;34.08;;;20.80;;
6442;SDS011;3254;47.372;8.512;2023-03-01T02:17:42;33.10;;;20.60;;
6442;SDS011;3254;47.372;8.512;2023-03-01T02:22:39;28.75;;;18.48;;
6442;SDS011;3254;47.372;8.512;2023-03-01T02:27:36;30.10;;;18.73;;
6442;SDS011;3254;47.372;8.512;2023-03-01T02:30:07;33.83;;;19.60;;
6442;SDS011;3254;47.372;8.512;2023-03-01T02:32:37;27.48;;;18.70;;
6442;SDS011;3254;47.372;8.512;2023-03-01T02:35:06;29.13;;;18.67;;
6442;SDS011;3254;47.372;8.512;2023-03-01T02:37:38;30.35;;;18.45;;
6442;SDS011;3254;47.372;8.512;2023-03-01T02:40:07;31.40;;;19.50;;
6442;SDS011;3254;47.372;8.512;2023-03-01T02:42:41;32.10;;;19.48;;
6442;SDS011;3254;47.372;8.512;2023-03-01T02:45:15;32.72;;;19.35;;
6442;SDS011;3254;47.372;8.512;2023-03-01T02:47:41;31.53;;;19.90;;
6442;SDS011;3254;47.372;8.512;2023-03-01T02:50:15;35.57;;;20.80;;
6442;SDS011;3254;47.372;8.512;2023-03-01T02:55:58;30.35;;;19.45;;
6442;SDS011;3254;47.372;8.512;2023-03-01T02:58:24;31.13;;;19.63;;
6442;SDS011;3254;47.372;8.512;2023-03-01T03:00:50;28.40;;;17.77;;
6442;SDS011;3254;47.372;8.512;2023-03-01T03:03:19;27.33;;;18.23;;
6442;SDS011;3254;47.372;8.512;2023-03-01T03:05:46;27.88;;;18.48;;
6442;SDS011;3254;47.372;8.512;2023-03-01T03:08:13;30.05;;;19.60;;
6442;SDS011;3254;47.372;8.512;2023-03-01T03:10:41;33.50;;;19.95;;
6442;SDS011;3254;47.372;8.512;2023-03-01T03:13:14;34.03;;;19.77;;
6442;SDS011;3254;47.372;8.512;2023-03-01T03:15:40;32.15;;;18.95;;
6442;SDS011;3254;47.372;8.512;2023-03-01T03:18:08;32.38;;;20.27;;
6442;SDS011;3254;47.372;8.512;2023-03-01T03:20:36;28.50;;;18.30;;
6442;SDS011;3254;47.372;8.512;2023-03-01T03:23:04;30.08;;;19.55;;
6442;SDS011;3254;47.372;8.512;2023-03-01T03:25:30;31.03;;;18.30;;
6442;SDS011;3254;47.372;8.512;2023-03-01T03:27:56;27.07;;;17.47;;
6442;SDS011;3254;47.372;8.512;2023-03-01T03:30:26;27.40;;;17.73;;
6442;SDS011;3254;47.372;8.512;2023-03-01T03:32:55;30.77;;;19.00;;
6442;SDS011;3254;47.372;8.512;2023-03-01T03:35:22;27.60;;;18.30;;
6442;SDS011;3254;47.372;8.512;2023-03-01T03:37:51;30.02;;;19.15;;
6442;SDS011;3254;47.372;8.512;2023-03-01T03:40:39;28.02;;;18.48;;
6442;SDS011;3254;47.372;8.512;2023-03-01T03:43:06;33.60;;;18.67;;
6442;SDS011;3254;47.372;8.512;2023-03-01T03:45:34;31.33;;;19.95;;
6442;SDS011;3254;47.372;8.512;2023-03-01T03:48:01;32.58;;;18.20;;
6442;SDS011;3254;47.372;8.512;2023-03-01T03:50:27;28.55;;;17.75;;
6442;SDS011;3254;47.372;8.512;2023-03-01T03:52:53;27.48;;;18.02;;
6442;SDS011;3254;47.372;8.512;2023-03-01T03:55:19;26.93;;;17.10;;
6442;SDS011;3254;47.372;8.512;2023-03-01T03:57:45;32.70;;;20.00;;
6442;SDS011;3254;47.372;8.512;2023-03-01T04:00:20;29.05;;;18.85;;
6442;SDS011;3254;47.372;8.512;2023-03-01T04:02:48;35.70;;;19.35;;
6442;SDS011;3254;47.372;8.512;2023-03-01T04:05:16;31.73;;;19.38;;
6442;SDS011;3254;47.372;8.512;2023-03-01T04:07:43;30.50;;;18.50;;
6442;SDS011;3254;47.372;8.512;2023-03-01T04:10:11;29.75;;;18.40;;
6442;SDS011;3254;47.372;8.512;2023-03-01T04:12:40;26.38;;;18.05;;
6442;SDS011;3254;47.372;8.512;2023-03-01T04:15:08;30.08;;;17.88;;
6442;SDS011;3254;47.372;8.512;2023-03-01T04:17:41;34.55;;;18.65;;
6442;SDS011;3254;47.372;8.512;2023-03-01T04:20:14;32.00;;;18.42;;
6442;SDS011;3254;47.372;8.512;2023-03-01T04:22:42;28.15;;;17.67;;
6442;SDS011;3254;47.372;8.512;2023-03-01T04:25:11;29.67;;;18.80;;
6442;SDS011;3254;47.372;8.512;2023-03-01T04:27:39;28.20;;;18.25;;
6442;SDS011;3254;47.372;8.512;2023-03-01T04:30:06;29.13;;;18.38;;
6442;SDS011;3254;47.372;8.512;2023-03-01T04:32:32;30.42;;;18.98;;
6442;SDS011;3254;47.372;8.512;2023-03-01T04:34:58;29.05;;;18.60;;
6442;SDS011;3254;47.372;8.512;2023-03-01T04:37:24;35.50;;;20.48;;
6442;SDS011;3254;47.372;8.512;2023-03-01T04:39:50;31.23;;;19.83;;
6442;SDS011;3254;47.372;8.512;2023-03-01T04:42:15;30.33;;;19.23;;
6442;SDS011;3254;47.372;8.512;2023-03-01T04:44:42;33.60;;;19.07;;
6442;SDS011;3254;47.372;8.512;2023-03-01T04:47:08;28.13;;;18.50;;
6442;SDS011;3254;47.372;8.512;2023-03-01T04:49:33;29.67;;;18.47;;
6442;SDS011;3254;47.372;8.512;2023-03-01T04:51:59;32.83;;;19.53;;
6442;SDS011;3254;47.372;8.512;2023-03-01T04:54:26;30.90;;;19.45;;
6442;SDS011;3254;47.372;8.512;2023-03-01T04:56:59;34.50;;;19.80;;
6442;SDS011;3254;47.372;8.512;2023-03-01T04:59:25;31.38;;;18.77;;
6442;SDS011;3254;47.372;8.512;2023-03-01T05:01:51;30.60;;;19.50;;
6442;SDS011;3254;47.372;8.512;2023-03-01T05:04:17;31.15;;;19.00;;
6442;SDS011;3254;47.372;8.512;2023-03-01T05:06:43;30.77;;;18.60;;
6442;SDS011;3254;47.372;8.512;2023-03-01T05:09:09;29.27;;;17.73;;
6442;SDS011;3254;47.372;8.512;2023-03-01T05:11:36;42.25;;;19.48;;
6442;SDS011;3254;47.372;8.512;2023-03-01T05:14:02;31.53;;;18.13;;
6442;SDS011;3254;47.372;8.512;2023-03-01T05:16:28;34.53;;;20.75;;
6442;SDS011;3254;47.372;8.512;2023-03-01T05:18:55;34.63;;;19.15;;
6442;SDS011;3254;47.372;8.512;2023-03-01T05:21:21;39.25;;;19.35;;
6442;SDS011;3254;47.372;8.512;2023-03-01T05:23:47;34.53;;;21.07;;
6442;SDS011;3254;47.372;8.512;2023-03-01T05:26:13;34.92;;;19.65;;
6442;SDS011;3254;47.372;8.512;2023-03-01T05:28:39;34.17;;;20.55;;
6442;SDS011;3254;47.372;8.512;2023-03-01T05:31:05;33.83;;;19.03;;
6442;SDS011;3254;47.372;8.512;2023-03-01T05:33:35;33.70;;;19.23;;
6442;SDS011;3254;47.372;8.512;2023-03-01T05:36:04;34.95;;;19.55;;
6442;SDS011;3254;47.372;8.512;2023-03-01T05:38:32;33.75;;;19.90;;
6442;SDS011;3254;47.372;8.512;2023-03-01T05:40:57;31.77;;;18.90;;
6442;SDS011;3254;47.372;8.512;2023-03-01T05:43:23;32.20;;;19.80;;
6442;SDS011;3254;47.372;8.512;2023-03-01T05:45:48;35.23;;;19.80;;
6442;SDS011;3254;47.372;8.512;2023-03-01T05:48:14;33.87;;;19.03;;
6442;SDS011;3254;47.372;8.512;2023-03-01T05:50:41;38.97;;;19.10;;
6442;SDS011;3254;47.372;8.512;2023-03-01T05:53:10;33.35;;;20.27;;
6442;SDS011;3254;47.372;8.512;2023-03-01T05:55:40;32.08;;;20.20;;
6442;SDS011;3254;47.372;8.512;2023-03-01T05:58:09;35.03;;;18.45;;
6442;SDS011;3254;47.372;8.512;2023-03-01T06:00:36;35.72;;;20.73;;
6442;SDS011;3254;47.372;8.512;2023-03-01T06:03:02;35.00;;;20.40;;
6442;SDS011;3254;47.372;8.512;2023-03-01T06:05:28;34.70;;;19.73;;
6442;SDS011;3254;47.372;8.512;2023-03-01T06:07:54;35.13;;;20.23;;
6442;SDS011;3254;47.372;8.512;2023-03-01T06:10:20;33.13;;;19.80;;
6442;SDS011;3254;47.372;8.512;2023-03-01T06:12:46;35.60;;;20.80;;
6442;SDS011;3254;47.372;8.512;2023-03-01T06:15:13;34.87;;;20.60;;
6442;SDS011;3254;47.372;8.512;2023-03-01T06:17:40;35.45;;;20.05;;
6442;SDS011;3254;47.372;8.512;2023-03-01T06:20:14;34.92;;;20.02;;
6442;SDS011;3254;47.372;8.512;2023-03-01T06:22:42;34.78;;;20.38;;
6442;SDS011;3254;47.372;8.512;2023-03-01T06:25:08;33.90;;;20.38;;
6442;SDS011;3254;47.372;8.512;2023-03-01T06:27:35;36.33;;;20.65;;
6442;SDS011;3254;47.372;8.512;2023-03-01T06:30:01;35.97;;;20.17;;
6442;SDS011;3254;47.372;8.512;2023-03-01T06:32:27;33.95;;;20.15;;
6442;SDS011;3254;47.372;8.512;2023-03-01T06:34:53;34.43;;;19.83;;
6442;SDS011;3254;47.372;8.512;2023-03-01T06:37:18;34.10;;;20.97;;
6442;SDS011;3254;47.372;8.512;2023-03-01T06:39:44;31.30;;;18.57;;
6442;SDS011;3254;47.372;8.512;2023-03-01T06:42:10;34.17;;;18.63;;
6442;SDS011;3254;47.372;8.512;2023-03-01T06:44:36;32.90;;;20.60;;
6442;SDS011;3254;47.372;8.512;2023-03-01T06:47:02;33.03;;;20.23;;
6442;SDS011;3254;47.372;8.512;2023-03-01T06:49:28;37.83;;;20.75;;
6442;SDS011;3254;47.372;8.512;2023-03-01T06:51:53;36.20;;;20.70;;
6442;SDS011;3254;47.372;8.512;2023-03-01T06:54:19;33.43;;;20.17;;
6442;SDS011;3254;47.372;8.512;2023-03-01T06:56:47;34.63;;;20.00;;
6442;SDS011;3254;47.372;8.512;2023-03-01T06:59:13;34.25;;;19.85;;
6442;SDS011;3254;47.372;8.512;2023-03-01T07:01:38;36.07;;;21.17;;
6442;SDS011;3254;47.372;8.512;2023-03-01T07:04:04;30.87;;;20.37;;
6442;SDS011;3254;47.372;8.512;2023-03-01T07:06:30;35.67;;;19.43;;
6442;SDS011;3254;47.372;8.512;2023-03-01T07:08:55;34.23;;;21.00;;
6442;SDS011;3254;47.372;8.512;2023-03-01T07:11:21;40.20;;;22.60;;
6442;SDS011;3254;47.372;8.512;2023-03-01T07:13:47;34.03;;;20.73;;
6442;SDS011;3254;47.372;8.512;2023-03-01T07:16:13;36.30;;;21.57;;
6442;SDS011;3254;47.372;8.512;2023-03-01T07:18:39;35.92;;;19.80;;
6442;SDS011;3254;47.372;8.512;2023-03-01T07:21:08;31.00;;;18.43;;
6442;SDS011;3254;47.372;8.512;2023-03-01T07:23:36;32.05;;;19.38;;
6442;SDS011;3254;47.372;8.512;2023-03-01T07:26:01;33.97;;;18.30;;
6442;SDS011;3254;47.372;8.512;2023-03-01T07:28:27;32.40;;;19.10;;
6442;SDS011;3254;47.372;8.512;2023-03-01T07:30:53;32.60;;;19.58;;
6442;SDS011;3254;47.372;8.512;2023-03-01T07:33:19;28.73;;;18.70;;
6442;SDS011;3254;47.372;8.512;2023-03-01T07:35:45;34.20;;;19.67;;
6442;SDS011;3254;47.372;8.512;2023-03-01T07:38:11;32.10;;;18.53;;
6442;SDS011;3254;47.372;8.512;2023-03-01T07:40:36;35.27;;;19.57;;
6442;SDS011;3254;47.372;8.512;2023-03-01T07:43:02;32.43;;;20.10;;
6442;SDS011;3254;47.372;8.512;2023-03-01T07:45:27;32.10;;;19.10;;
6442;SDS011;3254;47.372;8.512;2023-03-01T07:47:53;35.43;;;20.50;;
6442;SDS011;3254;47.372;8.512;2023-03-01T07:50:19;30.35;;;18.80;;
6442;SDS011;3254;47.372;8.512;2023-03-01T07:52:46;34.10;;;19.58;;
6442;SDS011;3254;47.372;8.512;2023-03-01T07:55:12;32.45;;;19.50;;
6442;SDS011;3254;47.372;8.512;2023-03-01T07:57:37;32.47;;;19.40;;
6442;SDS011;3254;47.372;8.512;2023-03-01T08:00:03;34.97;;;20.00;;
6442;SDS011;3254;47.372;8.512;2023-03-01T08:02:30;28.02;;;18.77;;
6442;SDS011;3254;47.372;8.512;2023-03-01T08:04:56;34.67;;;20.07;;
6442;SDS011;3254;47.372;8.512;2023-03-01T08:07:21;34.50;;;18.70;;
6442;SDS011;3254;47.372;8.512;2023-03-01T08:09:47;34.20;;;20.40;;
6442;SDS011;3254;47.372;8.512;2023-03-01T08:12:12;32.20;;;19.00;;
6442;SDS011;3254;47.372;8.512;2023-03-01T08:14:38;35.00;;;20.03;;
6442;SDS011;3254;47.372;8.512;2023-03-01T08:17:04;31.63;;;18.63;;
6442;SDS011;3254;47.372;8.512;2023-03-01T08:19:29;32.50;;;20.40;;
6442;SDS011;3254;47.372;8.512;2023-03-01T08:21:55;31.83;;;19.23;;
6442;SDS011;3254;47.372;8.512;2023-03-01T08:24:23;34.63;;;20.00;;
6442;SDS011;3254;47.372;8.512;2023-03-01T08:26:49;30.80;;;19.10;;
6442;SDS011;3254;47.372;8.512;2023-03-01T08:29:14;29.87;;;18.30;;
6442;SDS011;3254;47.372;8.512;2023-03-01T08:31:40;37.17;;;19.27;;
6442;SDS011;3254;47.372;8.512;2023-03-01T08:34:07;34.83;;;19.83;;
6442;SDS011;3254;47.372;8.512;2023-03-01T08:36:35;36.05;;;19.75;;
6442;SDS011;3254;47.372;8.512;2023-03-01T08:39:02;37.10;;;21.27;;
6442;SDS011;3254;47.372;8.512;2023-03-01T08:41:28;37.30;;;19.45;;
6442;SDS011;3254;47.372;8.512;2023-03-01T08:43:54;31.07;;;19.10;;
6442;SDS011;3254;47.372;8.512;2023-03-01T08:46:24;40.20;;;21.95;;
6442;SDS011;3254;47.372;8.512;2023-03-01T08:48:54;36.60;;;22.10;;
6442;SDS011;3254;47.372;8.512;2023-03-01T08:51:20;38.13;;;20.93;;
6442;SDS011;3254;47.372;8.512;2023-03-01T08:53:46;35.75;;;20.20;;
6442;SDS011;3254;47.372;8.512;2023-03-01T08:56:12;34.40;;;20.33;;
6442;SDS011;3254;47.372;8.512;2023-03-01T08:58:39;35.88;;;19.15;;
6442;SDS011;3254;47.372;8.512;2023-03-01T09:01:08;35.30;;;21.13;;
6442;SDS011;3254;47.372;8.512;2023-03-01T09:03:35;36.47;;;20.75;;
6442;SDS011;3254;47.372;8.512;2023-03-01T09:06:02;36.92;;;20.80;;
6442;SDS011;3254;47.372;8.512;2023-03-01T09:08:29;34.45;;;20.50;;
6442;SDS011;3254;47.372;8.512;2023-03-01T09:10:55;34.67;;;19.10;;
6442;SDS011;3254;47.372;8.512;2023-03-01T09:13:21;37.40;;;19.77;;
6442;SDS011;3254;47.372;8.512;2023-03-01T09:15:49;33.28;;;18.80;;
6442;SDS011;3254;47.372;8.512;2023-03-01T09:18:15;32.87;;;18.20;;
6442;SDS011;3254;47.372;8.512;2023-03-01T09:20:41;29.57;;;17.83;;
6442;SDS011;3254;47.372;8.512;2023-03-01T09:23:06;35.17;;;19.07;;
6442;SDS011;3254;47.372;8.512;2023-03-01T09:25:33;32.93;;;19.20;;
6442;SDS011;3254;47.372;8.512;2023-03-01T09:27:59;38.13;;;20.77;;
6442;SDS011;3254;47.372;8.512;2023-03-01T09:30:25;32.03;;;19.10;;
6442;SDS011;3254;47.372;8.512;2023-03-01T09:32:50;33.83;;;20.63;;
6442;SDS011;3254;47.372;8.512;2023-03-01T09:35:17;37.25;;;22.05;;
6442;SDS011;3254;47.372;8.512;2023-03-01T09:37:44;48.70;;;19.88;;
6442;SDS011;3254;47.372;8.512;2023-03-01T09:40:16;33.33;;;19.20;;
6442;SDS011;3254;47.372;8.512;2023-03-01T09:42:48;32.85;;;18.75;;
6442;SDS011;3254;47.372;8.512;2023-03-01T09:45:29;34.42;;;19.55;;
6442;SDS011;3254;47.372;8.512;2023-03-01T09:48:00;35.55;;;19.70;;
6442;SDS011;3254;47.372;8.512;2023-03-01T09:50:26;32.15;;;18.13;;
6442;SDS011;3254;47.372;8.512;2023-03-01T09:55:34;38.67;;;20.98;;
6442;SDS011;3254;47.372;8.512;2023-03-01T10:00:47;36.03;;;19.23;;
6442;SDS011;3254;47.372;8.512;2023-03-01T10:03:21;34.33;;;19.73;;
6442;SDS011;3254;47.372;8.512;2023-03-01T10:05:56;32.90;;;19.70;;
6442;SDS011;3254;47.372;8.512;2023-03-01T10:08:42;37.20;;;19.65;;
6442;SDS011;3254;47.372;8.512;2023-03-01T10:11:37;30.90;;;18.48;;
6442;SDS011;3254;47.372;8.512;2023-03-01T10:14:05;33.33;;;18.83;;
6442;SDS011;3254;47.372;8.512;2023-03-01T10:16:47;33.08;;;17.85;;
6442;SDS011;3254;47.372;8.512;2023-03-01T10:19:23;30.20;;;17.70;;
6442;SDS011;3254;47.372;8.512;2023-03-01T10:21:55;31.42;;;18.02;;
6442;SDS011;3254;47.372;8.512;2023-03-01T10:24:27;32.28;;;18.50;;
6442;SDS011;3254;47.372;8.512;2023-03-01T10:27:01;32.72;;;17.88;;
6442;SDS011;3254;47.372;8.512;2023-03-01T10:29:39;37.25;;;18.50;;
6442;SDS011;3254;47.372;8.512;2023-03-01T10:32:29;33.83;;;19.17;;
6442;SDS011;3254;47.372;8.512;2023-03-01T10:34:54;50.37;;;18.00;;
6442;SDS011;3254;47.372;8.512;2023-03-01T10:37:22;32.45;;;18.00;;
6442;SDS011;3254;47.372;8.512;2023-03-01T10:40:08;33.88;;;17.92;;
6442;SDS011;3254;47.372;8.512;2023-03-01T10:42:35;30.02;;;17.83;;
6442;SDS011;3254;47.372;8.512;2023-03-01T10:45:30;32.97;;;18.33;;
6442;SDS011;3254;47.372;8.512;2023-03-01T10:48:29;32.35;;;18.50;;
6442;SDS011;3254;47.372;8.512;2023-03-01T10:51:12;33.47;;;18.88;;
6442;SDS011;3254;47.372;8.512;2023-03-01T10:53:41;31.45;;;17.73;;
6442;SDS011;3254;47.372;8.512;2023-03-01T10:56:13;30.55;;;17.60;;
6442;SDS011;3254;47.372;8.512;2023-03-01T10:58:56;28.02;;;17.15;;
6442;SDS011;3254;47.372;8.512;2023-03-01T11:01:29;31.33;;;16.90;;
6442;SDS011;3254;47.372;8.512;2023-03-01T11:06:35;28.75;;;17.95;;
6442;SDS011;3254;47.372;8.512;2023-03-01T11:09:16;29.73;;;17.13;;
6442;SDS011;3254;47.372;8.512;2023-03-01T11:11:44;28.63;;;17.95;;
6442;SDS011;3254;47.372;8.512;2023-03-01T11:14:24;27.73;;;16.33;;
6442;SDS011;3254;47.372;8.512;2023-03-01T11:16:58;31.40;;;16.67;;
6442;SDS011;3254;47.372;8.512;2023-03-01T11:19:29;25.35;;;16.00;;
6442;SDS011;3254;47.372;8.512;2023-03-01T11:21:58;32.15;;;17.27;;
6442;SDS011;3254;47.372;8.512;2023-03-01T11:24:44;29.55;;;16.15;;
6442;SDS011;3254;47.372;8.512;2023-03-01T11:29:52;28.15;;;16.77;;
6442;SDS011;3254;47.372;8.512;2023-03-01T11:32:19;35.72;;;19.95;;
6442;SDS011;3254;47.372;8.512;2023-03-01T11:34:56;32.10;;;17.85;;
6442;SDS011;3254;47.372;8.512;2023-03-01T11:37:33;28.05;;;17.40;;
6442;SDS011;3254;47.372;8.512;2023-03-01T11:40:11;29.70;;;16.70;;
6442;SDS011;3254;47.372;8.512;2023-03-01T11:42:53;33.67;;;17.95;;
6442;SDS011;3254;47.372;8.512;2023-03-01T11:45:27;29.80;;;16.77;;
6442;SDS011;3254;47.372;8.512;2023-03-01T11:50:57;29.25;;;16.10;;
6442;SDS011;3254;47.372;8.512;2023-03-01T12:04:21;26.00;;;15.85;;
6442;SDS011;3254;47.372;8.512;2023-03-01T12:07:00;29.00;;;15.93;;
6442;SDS011;3254;47.372;8.512;2023-03-01T12:09:33;27.25;;;15.75;;
6442;SDS011;3254;47.372;8.512;2023-03-01T12:12:06;28.35;;;16.15;;
6442;SDS011;3254;47.372;8.512;2023-03-01T12:20:46;25.88;;;15.13;;
6442;SDS011;3254;47.372;8.512;2023-03-01T12:31:44;29.88;;;15.90;;
6442;SDS011;3254;47.372;8.512;2023-03-01T12:34:33;30.58;;;16.98;;
6442;SDS011;3254;47.372;8.512;2023-03-01T12:37:15;31.58;;;17.42;;
6442;SDS011;3254;47.372;8.512;2023-03-01T12:51:04;31.50;;;20.13;;
6442;SDS011;3254;47.372;8.512;2023-03-01T12:53:36;30.23;;;18.95;;
6442;SDS011;3254;47.372;8.512;2023-03-01T12:56:06;32.25;;;19.38;;
6442;SDS011;3254;47.372;8.512;2023-03-01T13:01:22;36.50;;;18.70;;
6442;SDS011;3254;47.372;8.512;2023-03-01T13:12:01;33.78;;;17.77;;
6442;SDS011;3254;47.372;8.512;2023-03-01T13:17:00;29.50;;;17.70;;
6442;SDS011;3254;47.372;8.512;2023-03-01T13:19:26;35.73;;;17.63;;
6442;SDS011;3254;47.372;8.512;2023-03-01T13:22:01;31.00;;;18.30;;
6442;SDS011;3254;47.372;8.512;2023-03-01T13:25:02;34.92;;;20.63;;
6442;SDS011;3254;47.372;8.512;2023-03-01T13:27:38;28.52;;;17.73;;
6442;SDS011;3254;47.372;8.512;2023-03-01T13:30:04;30.17;;;17.20;;
6442;SDS011;3254;47.372;8.512;2023-03-01T13:32:49;30.60;;;19.10;;
6442;SDS011;3254;47.372;8.512;2023-03-01T13:37:42;34.95;;;19.83;;
6442;SDS011;3254;47.372;8.512;2023-03-01T13:42:45;30.20;;;17.40;;
6442;SDS011;3254;47.372;8.512;2023-03-01T13:48:08;29.23;;;16.80;;
6442;SDS011;3254;47.372;8.512;2023-03-01T13:50:55;29.20;;;17.40;;
6442;SDS011;3254;47.372;8.512;2023-03-01T19:36:56;38.45;;;21.35;;
6442;SDS011;3254;47.372;8.512;2023-03-01T19:39:22;33.17;;;20.08;;
6442;SDS011;3254;47.372;8.512;2023-03-01T19:41:47;34.13;;;20.00;;
6442;SDS011;3254;47.372;8.512;2023-03-01T19:44:13;33.90;;;19.43;;
6442;SDS011;3254;47.372;8.512;2023-03-01T19:46:39;31.43;;;19.00;;
6442;SDS011;3254;47.372;8.512;2023-03-01T19:49:08;32.53;;;19.37;;
6442;SDS011;3254;47.372;8.512;2023-03-01T19:51:33;35.03;;;19.67;;
6442;SDS011;3254;47.372;8.512;2023-03-01T19:54:03;33.15;;;19.85;;
6442;SDS011;3254;47.372;8.512;2023-03-01T19:56:30;30.08;;;19.73;;
6442;SDS011;3254;47.372;8.512;2023-03-01T19:58:57;35.42;;;19.92;;
6442;SDS011;3254;47.372;8.512;2023-03-01T20:01:25;32.85;;;19.48;;
6442;SDS011;3254;47.372;8.512;2023-03-01T20:03:56;30.23;;;18.05;;
6442;SDS011;3254;47.372;8.512;2023-03-01T20:06:21;31.37;;;19.17;;
6442;SDS011;3254;47.372;8.512;2023-03-01T20:08:47;32.90;;;19.02;;
6442;SDS011;3254;47.372;8.512;2023-03-01T20:11:13;33.73;;;19.80;;
6442;SDS011;3254;47.372;8.512;2023-03-01T20:13:40;32.53;;;19.92;;
6442;SDS011;3254;47.372;8.512;2023-03-01T20:16:08;30.58;;;19.45;;
6442;SDS011;3254;47.372;8.512;2023-03-01T20:18:36;30.65;;;19.13;;
6442;SDS011;3254;47.372;8.512;2023-03-01T20:21:02;35.25;;;21.70;;
6442;SDS011;3254;47.372;8.512;2023-03-01T20:23:27;32.47;;;19.40;;
6442;SDS011;3254;47.372;8.512;2023-03-01T20:26:07;30.67;;;19.75;;
6442;SDS011;3254;47.372;8.512;2023-03-01T20:28:39;29.40;;;18.75;;
6442;SDS011;3254;47.372;8.512;2023-03-01T20:31:05;30.70;;;19.00;;
6442;SDS011;3254;47.372;8.512;2023-03-01T20:33:35;39.28;;;20.13;;
6442;SDS011;3254;47.372;8.512;2023-03-01T20:36:02;30.27;;;19.60;;
6442;SDS011;3254;47.372;8.512;2023-03-01T20:38:29;32.80;;;18.85;;
6442;SDS011;3254;47.372;8.512;2023-03-01T20:41:28;33.17;;;18.67;;
6442;SDS011;3254;47.372;8.512;2023-03-01T20:43:50;42.70;;;20.40;;
6442;SDS011;3254;47.372;8.512;2023-03-01T20:46:20;37.38;;;20.50;;
6442;SDS011;3254;47.372;8.512;2023-03-01T20:48:48;33.50;;;18.70;;
6442;SDS011;3254;47.372;8.512;2023-03-01T20:51:18;35.17;;;20.40;;
6442;SDS011;3254;47.372;8.512;2023-03-01T20:53:45;42.57;;;21.40;;
6442;SDS011;3254;47.372;8.512;2023-03-01T20:56:11;33.63;;;20.88;;
6442;SDS011;3254;47.372;8.512;2023-03-01T20:58:39;31.33;;;19.90;;
6442;SDS011;3254;47.372;8.512;2023-03-01T21:01:09;35.60;;;20.95;;
6442;SDS011;3254;47.372;8.512;2023-03-01T21:03:38;34.88;;;20.92;;
6442;SDS011;3254;47.372;8.512;2023-03-01T21:06:06;34.97;;;21.10;;
6442;SDS011;3254;47.372;8.512;2023-03-01T21:08:33;34.17;;;20.55;;
6442;SDS011;3254;47.372;8.512;2023-03-01T21:11:00;34.50;;;19.77;;
6442;SDS011;3254;47.372;8.512;2023-03-01T21:13:27;35.85;;;20.55;;
6442;SDS011;3254;47.372;8.512;2023-03-01T21:15:59;34.75;;;21.20;;
6442;SDS011;3254;47.372;8.512;2023-03-01T21:18:27;33.45;;;19.48;;
6442;SDS011;3254;47.372;8.512;2023-03-01T21:20:57;31.48;;;19.42;;
6442;SDS011;3254;47.372;8.512;2023-03-01T21:23:27;36.63;;;19.42;;
6442;SDS011;3254;47.372;8.512;2023-03-01T21:26:05;32.65;;;20.25;;
6442;SDS011;3254;47.372;8.512;2023-03-01T21:28:35;32.53;;;19.83;;
6442;SDS011;3254;47.372;8.512;2023-03-01T21:31:21;36.38;;;20.35;;
6442;SDS011;3254;47.372;8.512;2023-03-01T21:33:50;34.80;;;20.35;;
6442;SDS011;3254;47.372;8.512;2023-03-01T21:36:18;37.42;;;20.20;;
6442;SDS011;3254;47.372;8.512;2023-03-01T21:38:45;31.42;;;19.25;;
6442;SDS011;3254;47.372;8.512;2023-03-01T21:41:21;36.15;;;20.90;;
6442;SDS011;3254;47.372;8.512;2023-03-01T21:43:52;31.38;;;19.15;;
6442;SDS011;3254;47.372;8.512;2023-03-01T21:46:22;31.52;;;20.35;;
6442;SDS011;3254;47.372;8.512;2023-03-01T21:48:50;30.98;;;19.30;;
6442;SDS011;3254;47.372;8.512;2023-03-01T21:51:17;35.97;;;20.83;;
6442;SDS011;3254;47.372;8.512;2023-03-01T21:53:44;33.25;;;21.02;;
6442;SDS011;3254;47.372;8.512;2023-03-01T21:56:19;40.00;;;21.38;;
6442;SDS011;3254;47.372;8.512;2023-03-01T21:58:51;35.10;;;20.33;;
6442;SDS011;3254;47.372;8.512;2023-03-01T22:01:18;31.05;;;19.45;;
6442;SDS011;3254;47.372;8.512;2023-03-01T22:03:49;34.65;;;20.63;;
6442;SDS011;3254;47.372;8.512;2023-03-01T22:06:17;34.80;;;22.10;;
6442;SDS011;3254;47.372;8.512;2023-03-01T22:08:51;35.63;;;20.80;;